createdAt,value
2018-04-30T00:00:38.457Z,0.00
2018-04-30T00:02:31.338Z,0.00
2018-04-30T00:03:31.293Z,0.00
2018-04-30T00:05:24.169Z,0.00
2018-04-30T00:06:24.131Z,0.00
2018-04-30T00:08:17.006Z,0.00
2018-04-30T00:09:16.988Z,0.00
2018-04-30T00:11:09.860Z,0.00
2018-04-30T00:12:09.828Z,0.00
2018-04-30T00:14:02.689Z,0.00
2018-04-30T00:15:02.670Z,0.00
2018-04-30T00:16:55.535Z,0.00
2018-04-30T00:17:55.504Z,0.00
2018-04-30T00:19:48.359Z,0.00
2018-04-30T00:20:48.340Z,0.00
2018-04-30T00:22:41.209Z,0.00
2018-04-30T00:23:41.196Z,0.00
2018-04-30T00:25:34.037Z,0.00
2018-04-30T00:26:34.024Z,0.00
2018-04-30T00:28:26.892Z,0.00
2018-04-30T00:29:26.855Z,0.00
2018-04-30T00:31:19.723Z,0.00
2018-04-30T00:32:19.692Z,0.00
2018-04-30T00:34:12.569Z,0.00
2018-04-30T00:35:12.541Z,0.00
2018-04-30T00:37:05.392Z,0.00
2018-04-30T00:38:05.374Z,0.00
2018-04-30T00:39:58.260Z,0.00
2018-04-30T00:40:58.217Z,0.00
2018-04-30T00:42:51.082Z,0.00
2018-04-30T00:43:51.052Z,0.00
2018-04-30T00:45:43.915Z,0.00
2018-04-30T00:46:43.884Z,0.00
2018-04-30T00:48:36.749Z,0.00
2018-04-30T00:49:36.732Z,0.00
2018-04-30T00:51:29.606Z,0.00
2018-04-30T00:52:29.575Z,0.00
2018-04-30T00:54:22.432Z,0.00
2018-04-30T00:55:22.413Z,0.00
2018-04-30T00:57:15.287Z,0.00
2018-04-30T00:58:15.254Z,0.00
2018-04-30T01:00:08.112Z,0.00
2018-04-30T01:01:08.097Z,0.00
2018-04-30T01:03:00.965Z,0.00
2018-04-30T01:04:00.933Z,0.00
2018-04-30T01:05:53.793Z,0.00
2018-04-30T01:06:53.777Z,0.00
2018-04-30T01:08:46.642Z,0.00
2018-04-30T01:09:46.609Z,0.00
2018-04-30T01:11:39.486Z,0.00
2018-04-30T01:12:39.464Z,0.00
2018-04-30T01:14:32.332Z,0.00
2018-04-30T01:15:32.302Z,0.00
2018-04-30T01:17:25.161Z,0.00
2018-04-30T01:18:25.138Z,0.00
2018-04-30T01:20:18.013Z,0.00
2018-04-30T01:21:17.978Z,0.00
2018-04-30T01:23:10.831Z,0.00
2018-04-30T01:24:10.810Z,0.00
2018-04-30T01:26:03.684Z,0.00
2018-04-30T01:27:03.655Z,0.00
2018-04-30T01:28:56.500Z,0.00
2018-04-30T01:29:56.482Z,0.00
2018-04-30T01:31:49.352Z,0.00
2018-04-30T01:32:49.322Z,0.00
2018-04-30T01:34:42.175Z,0.00
2018-04-30T01:35:42.153Z,0.00
2018-04-30T01:37:35.025Z,0.00
2018-04-30T01:38:34.995Z,0.00
2018-04-30T01:40:27.846Z,0.00
2018-04-30T01:41:27.827Z,0.00
2018-04-30T01:43:20.699Z,0.00
2018-04-30T01:44:20.670Z,0.00
2018-04-30T01:46:13.518Z,0.00
2018-04-30T01:47:13.496Z,0.00
2018-04-30T01:49:06.369Z,0.00
2018-04-30T01:50:06.333Z,0.00
2018-04-30T01:51:59.189Z,0.00
2018-04-30T01:52:59.170Z,0.00
2018-04-30T01:54:52.036Z,0.00
2018-04-30T01:55:52.011Z,0.00
2018-04-30T01:57:44.855Z,0.00
2018-04-30T01:58:44.838Z,0.00
2018-04-30T02:00:37.781Z,0.00
2018-04-30T02:01:37.690Z,0.00
2018-04-30T02:03:30.528Z,0.00
2018-04-30T02:04:30.508Z,0.00
2018-04-30T02:06:23.373Z,0.00
2018-04-30T02:07:23.343Z,0.00
2018-04-30T02:09:16.198Z,0.00
2018-04-30T02:10:16.179Z,0.00
2018-04-30T02:12:09.044Z,0.00
2018-04-30T02:13:09.016Z,0.00
2018-04-30T02:15:01.869Z,0.00
2018-04-30T02:16:01.849Z,0.00
2018-04-30T02:17:54.709Z,0.00
2018-04-30T02:18:54.682Z,0.00
2018-04-30T02:20:47.541Z,0.00
2018-04-30T02:21:47.516Z,0.00
2018-04-30T02:23:40.379Z,0.00
2018-04-30T02:24:40.348Z,0.00
2018-04-30T02:26:33.200Z,0.00
2018-04-30T02:27:33.197Z,0.00
2018-04-30T02:29:26.085Z,0.00
2018-04-30T02:30:26.018Z,0.00
2018-04-30T02:32:18.872Z,0.00
2018-04-30T02:33:18.853Z,0.00
2018-04-30T02:35:11.707Z,0.00
2018-04-30T02:36:11.680Z,0.00
2018-04-30T02:38:04.537Z,0.00
2018-04-30T02:39:04.511Z,0.00
2018-04-30T02:40:57.385Z,0.00
2018-04-30T02:41:57.352Z,0.00
2018-04-30T02:43:50.256Z,0.00
2018-04-30T02:44:50.179Z,0.00
2018-04-30T02:46:43.043Z,0.00
2018-04-30T02:47:43.010Z,0.00
2018-04-30T02:49:35.859Z,0.00
2018-04-30T02:50:35.847Z,0.00
2018-04-30T02:52:28.703Z,0.00
2018-04-30T02:53:28.676Z,0.00
2018-04-30T02:55:21.529Z,0.00
2018-04-30T02:56:21.507Z,0.00
2018-04-30T02:58:14.373Z,0.00
2018-04-30T02:59:14.339Z,0.00
2018-04-30T03:01:07.193Z,0.00
2018-04-30T03:02:07.181Z,0.00
2018-04-30T03:04:00.039Z,0.00
2018-04-30T03:05:00.012Z,0.00
2018-04-30T03:06:52.860Z,0.00
2018-04-30T03:07:52.839Z,0.00
2018-04-30T03:09:45.708Z,0.00
2018-04-30T03:10:45.673Z,0.00
2018-04-30T03:12:38.533Z,0.00
2018-04-30T03:13:38.510Z,0.00
2018-04-30T03:15:31.368Z,0.00
2018-04-30T03:16:31.340Z,0.00
2018-04-30T03:18:24.185Z,0.00
2018-04-30T03:19:24.164Z,0.00
2018-04-30T03:21:17.034Z,0.00
2018-04-30T03:22:17.001Z,0.00
2018-04-30T03:24:09.851Z,0.00
2018-04-30T03:25:09.830Z,0.00
2018-04-30T03:27:02.689Z,0.00
2018-04-30T03:28:02.665Z,0.00
2018-04-30T03:29:55.513Z,0.00
2018-04-30T03:30:55.494Z,0.00
2018-04-30T03:32:48.361Z,0.00
2018-04-30T03:33:48.324Z,0.00
2018-04-30T03:35:41.173Z,0.00
2018-04-30T03:36:41.153Z,0.00
2018-04-30T03:38:34.021Z,0.00
2018-04-30T03:39:33.986Z,0.00
2018-04-30T03:41:26.838Z,0.00
2018-04-30T03:42:26.817Z,0.00
2018-04-30T03:44:19.681Z,0.00
2018-04-30T03:45:19.652Z,0.00
2018-04-30T03:47:12.502Z,4.00
2018-04-30T03:48:12.478Z,4.00
2018-04-30T03:50:05.339Z,4.00
2018-04-30T03:51:05.307Z,4.00
2018-04-30T03:52:58.158Z,8.00
2018-04-30T03:53:58.142Z,8.00
2018-04-30T03:55:51.003Z,12.00
2018-04-30T03:56:50.971Z,12.00
2018-04-30T03:58:43.822Z,16.00
2018-04-30T03:59:43.801Z,20.00
2018-04-30T04:01:36.664Z,24.00
2018-04-30T04:02:36.636Z,24.00
2018-04-30T04:04:29.495Z,32.00
2018-04-30T04:05:29.472Z,36.00
2018-04-30T04:07:22.334Z,52.00
2018-04-30T04:08:22.304Z,60.00
2018-04-30T04:10:15.157Z,76.00
2018-04-30T04:11:15.135Z,88.00
2018-04-30T04:13:07.997Z,112.00
2018-04-30T04:14:07.968Z,124.00
2018-04-30T04:16:00.818Z,144.00
2018-04-30T04:17:00.798Z,156.00
2018-04-30T04:18:53.689Z,168.00
2018-04-30T04:19:53.756Z,164.00
2018-04-30T04:21:46.511Z,164.00
2018-04-30T04:22:46.489Z,168.00
2018-04-30T04:24:39.352Z,188.00
2018-04-30T04:25:39.328Z,208.00
2018-04-30T04:27:32.184Z,252.00
2018-04-30T04:28:32.162Z,264.00
2018-04-30T04:30:25.027Z,296.00
2018-04-30T04:31:24.992Z,328.00
2018-04-30T04:33:17.842Z,364.00
2018-04-30T04:34:17.826Z,384.00
2018-04-30T04:36:10.685Z,432.00
2018-04-30T04:37:10.652Z,444.00
2018-04-30T04:39:03.504Z,448.00
2018-04-30T04:40:03.489Z,444.00
2018-04-30T04:41:56.347Z,456.00
2018-04-30T04:42:56.315Z,468.00
2018-04-30T04:44:49.165Z,508.00
2018-04-30T04:45:49.145Z,532.00
2018-04-30T04:47:42.010Z,596.00
2018-04-30T04:48:41.976Z,684.00
2018-04-30T04:50:34.828Z,856.00
2018-04-30T04:51:34.806Z,896.00
2018-04-30T04:53:27.679Z,944.00
2018-04-30T04:54:27.641Z,1012.00
2018-04-30T04:56:20.570Z,1260.00
2018-04-30T04:57:20.473Z,1312.00
2018-04-30T04:59:13.334Z,1300.00
2018-04-30T05:00:13.305Z,1284.00
2018-04-30T05:02:06.157Z,1300.00
2018-04-30T05:03:06.137Z,1352.00
2018-04-30T05:04:59.003Z,1656.00
2018-04-30T05:05:58.969Z,1908.00
2018-04-30T05:07:51.819Z,2300.00
2018-04-30T05:08:51.798Z,2412.00
2018-04-30T05:10:44.660Z,2712.00
2018-04-30T05:11:44.626Z,2876.00
2018-04-30T05:13:37.482Z,3144.00
2018-04-30T05:14:37.462Z,3260.00
2018-04-30T05:16:30.322Z,3156.00
2018-04-30T05:17:30.294Z,3084.00
2018-04-30T05:19:23.154Z,3320.00
2018-04-30T05:20:23.125Z,3724.00
2018-04-30T05:22:15.988Z,4496.00
2018-04-30T05:23:15.954Z,4728.00
2018-04-30T05:25:08.805Z,5232.00
2018-04-30T05:26:08.784Z,5892.00
2018-04-30T05:28:01.649Z,6688.00
2018-04-30T05:29:01.622Z,6820.00
2018-04-30T05:30:54.472Z,6048.00
2018-04-30T05:31:54.451Z,5336.00
2018-04-30T05:33:47.377Z,4528.00
2018-04-30T05:34:47.285Z,4524.00
2018-04-30T05:36:40.136Z,4212.00
2018-04-30T05:37:40.118Z,4120.00
2018-04-30T05:39:32.984Z,4492.00
2018-04-30T05:40:32.950Z,4944.00
2018-04-30T05:42:25.804Z,6044.00
2018-04-30T05:43:25.786Z,6452.00
2018-04-30T05:45:18.662Z,7832.00
2018-04-30T05:46:18.624Z,8560.00
2018-04-30T05:48:11.476Z,10544.00
2018-04-30T05:49:11.456Z,16128.00
2018-04-30T05:51:04.316Z,12788.00
2018-04-30T05:52:04.293Z,12872.00
2018-04-30T05:53:57.147Z,15076.00
2018-04-30T05:54:57.132Z,14996.00
2018-04-30T05:56:49.996Z,24288.00
2018-04-30T05:57:49.965Z,38016.00
2018-04-30T05:59:42.817Z,19776.00
2018-04-30T06:00:42.797Z,30560.00
2018-04-30T06:02:35.668Z,15596.00
2018-04-30T06:03:35.636Z,9828.00
2018-04-30T06:05:28.493Z,7148.00
2018-04-30T06:06:28.475Z,6956.00
2018-04-30T06:08:21.343Z,7560.00
2018-04-30T06:09:21.314Z,8048.00
2018-04-30T06:11:14.177Z,6864.00
2018-04-30T06:12:14.219Z,7992.00
2018-04-30T06:14:07.019Z,8128.00
2018-04-30T06:15:07.015Z,7340.00
2018-04-30T06:16:59.885Z,6280.00
2018-04-30T06:17:59.824Z,6072.00
2018-04-30T06:19:52.691Z,7320.00
2018-04-30T06:20:52.663Z,6912.00
2018-04-30T06:22:45.518Z,7344.00
2018-04-30T06:23:45.500Z,8364.00
2018-04-30T06:25:38.366Z,9948.00
2018-04-30T06:26:38.435Z,11764.00
2018-04-30T06:28:31.189Z,22720.00
2018-04-30T06:29:31.170Z,22624.00
2018-04-30T06:31:24.042Z,18080.00
2018-04-30T06:32:24.008Z,13452.00
2018-04-30T06:34:16.863Z,8836.00
2018-04-30T06:35:16.844Z,7136.00
2018-04-30T06:37:09.713Z,8124.00
2018-04-30T06:38:09.685Z,8764.00
2018-04-30T06:40:02.534Z,14376.00
2018-04-30T06:41:02.516Z,20096.00
2018-04-30T06:42:55.386Z,7604.00
2018-04-30T06:43:55.357Z,6992.00
2018-04-30T06:45:48.260Z,8276.00
2018-04-30T06:46:48.192Z,9528.00
2018-04-30T06:48:41.138Z,13672.00
2018-04-30T06:49:41.030Z,15804.00
2018-04-30T06:51:33.883Z,24352.00
2018-04-30T06:52:33.873Z,26048.00
2018-04-30T06:54:26.732Z,30080.00
2018-04-30T06:55:26.702Z,96576.00
2018-04-30T06:57:19.561Z,61088.00
2018-04-30T06:58:19.544Z,88704.00
2018-04-30T07:00:12.433Z,55424.00
2018-04-30T07:01:12.391Z,93024.00
2018-04-30T07:03:05.271Z,94176.00
2018-04-30T07:04:05.250Z,21152.00
2018-04-30T07:05:58.124Z,88544.00
2018-04-30T07:06:58.101Z,94816.00
2018-04-30T07:08:50.966Z,94720.00
2018-04-30T07:09:50.952Z,93120.00
2018-04-30T07:11:43.831Z,84672.00
2018-04-30T07:12:43.807Z,89696.00
2018-04-30T07:14:36.685Z,46688.00
2018-04-30T07:15:36.672Z,30368.00
2018-04-30T07:17:29.550Z,43104.00
2018-04-30T07:18:29.525Z,89984.00
2018-04-30T07:20:22.403Z,89920.00
2018-04-30T07:21:22.389Z,93696.00
2018-04-30T07:23:15.275Z,83040.00
2018-04-30T07:24:15.250Z,24064.00
2018-04-30T07:26:08.122Z,78528.00
2018-04-30T07:27:08.107Z,84736.00
2018-04-30T07:29:01.057Z,93088.00
2018-04-30T07:30:00.960Z,87616.00
2018-04-30T07:31:53.832Z,89056.00
2018-04-30T07:32:53.821Z,92192.00
2018-04-30T07:34:46.702Z,40288.00
2018-04-30T07:35:46.678Z,94656.00
2018-04-30T07:37:39.547Z,89888.00
2018-04-30T07:38:39.539Z,9720.00
2018-04-30T07:40:32.417Z,90080.00
2018-04-30T07:41:32.394Z,32896.00
2018-04-30T07:43:25.265Z,112576.00
2018-04-30T07:44:25.254Z,27648.00
2018-04-30T07:46:18.136Z,109952.00
2018-04-30T07:47:18.113Z,111904.00
2018-04-30T07:49:10.997Z,109056.00
2018-04-30T07:50:10.974Z,109088.00
2018-04-30T07:52:03.856Z,44064.00
2018-04-30T07:53:03.831Z,28000.00
2018-04-30T07:54:56.701Z,15176.00
2018-04-30T07:55:56.692Z,46752.00
2018-04-30T07:57:49.582Z,119328.00
2018-04-30T07:58:49.552Z,90528.00
2018-04-30T08:00:42.416Z,111648.00
2018-04-30T08:01:42.408Z,120704.00
2018-04-30T08:03:35.285Z,121952.00
2018-04-30T08:04:35.269Z,115040.00
2018-04-30T08:06:28.142Z,15960.00
2018-04-30T08:07:28.123Z,9492.00
2018-04-30T08:09:21.003Z,24064.00
2018-04-30T08:10:20.979Z,116160.00
2018-04-30T08:12:13.848Z,96096.00
2018-04-30T08:13:13.847Z,14800.00
2018-04-30T08:15:06.728Z,19040.00
2018-04-30T08:16:06.703Z,11648.00
2018-04-30T08:17:59.574Z,89408.00
2018-04-30T08:18:59.560Z,10680.00
2018-04-30T08:20:52.437Z,115808.00
2018-04-30T08:21:52.420Z,28736.00
2018-04-30T08:23:45.288Z,86368.00
2018-04-30T08:24:45.277Z,110528.00
2018-04-30T08:26:38.164Z,109248.00
2018-04-30T08:27:38.138Z,113280.00
2018-04-30T08:29:31.010Z,114016.00
2018-04-30T08:30:31.006Z,116608.00
2018-04-30T08:32:23.883Z,118656.00
2018-04-30T08:33:23.864Z,113632.00
2018-04-30T08:35:16.730Z,121664.00
2018-04-30T08:36:16.728Z,120864.00
2018-04-30T08:38:09.605Z,116192.00
2018-04-30T08:39:09.588Z,116064.00
2018-04-30T08:41:02.462Z,89280.00
2018-04-30T08:42:02.452Z,69024.00
2018-04-30T08:43:55.337Z,40672.00
2018-04-30T08:44:55.316Z,37248.00
2018-04-30T08:46:48.190Z,36512.00
2018-04-30T08:47:48.179Z,35168.00
2018-04-30T08:49:41.065Z,38464.00
2018-04-30T08:50:41.043Z,46400.00
2018-04-30T08:52:33.920Z,25600.00
2018-04-30T08:53:33.909Z,52288.00
2018-04-30T08:55:26.792Z,73568.00
2018-04-30T08:56:26.776Z,78784.00
2018-04-30T08:58:19.651Z,87744.00
2018-04-30T08:59:19.642Z,93472.00
2018-04-30T09:01:12.529Z,97536.00
2018-04-30T09:02:12.508Z,97760.00
2018-04-30T09:04:05.385Z,104640.00
2018-04-30T09:05:05.379Z,103136.00
2018-04-30T09:06:58.265Z,108224.00
2018-04-30T09:07:58.244Z,23904.00
2018-04-30T09:09:51.185Z,10156.00
2018-04-30T09:10:51.105Z,16564.00
2018-04-30T09:12:43.992Z,101120.00
2018-04-30T09:13:43.972Z,91168.00
2018-04-30T09:15:36.843Z,72352.00
2018-04-30T09:16:36.834Z,63680.00
2018-04-30T09:18:29.715Z,61152.00
2018-04-30T09:19:29.692Z,14028.00
2018-04-30T09:21:22.565Z,56736.00
2018-04-30T09:22:22.554Z,22272.00
2018-04-30T09:24:15.437Z,27904.00
2018-04-30T09:25:15.413Z,56384.00
2018-04-30T09:27:08.285Z,108064.00
2018-04-30T09:28:08.283Z,16176.00
2018-04-30T09:30:01.159Z,96672.00
2018-04-30T09:31:01.132Z,38080.00
2018-04-30T09:32:54.002Z,12440.00
2018-04-30T09:33:53.993Z,11204.00
2018-04-30T09:35:46.878Z,20960.00
2018-04-30T09:36:46.849Z,135584.00
2018-04-30T09:38:39.728Z,130816.00
2018-04-30T09:39:39.712Z,124800.00
2018-04-30T09:41:32.594Z,122912.00
2018-04-30T09:42:32.573Z,131008.00
2018-04-30T09:44:25.442Z,14664.00
2018-04-30T09:45:25.430Z,22560.00
2018-04-30T09:47:18.310Z,19808.00
2018-04-30T09:48:18.291Z,17016.00
2018-04-30T09:50:11.162Z,16704.00
2018-04-30T09:51:11.151Z,19328.00
2018-04-30T09:53:04.035Z,136608.00
2018-04-30T09:54:04.007Z,12960.00
2018-04-30T09:55:56.878Z,120608.00
2018-04-30T09:56:56.866Z,115776.00
2018-04-30T09:58:49.749Z,14180.00
2018-04-30T09:59:49.727Z,42816.00
2018-04-30T10:01:42.596Z,74272.00
2018-04-30T10:02:42.655Z,118784.00
2018-04-30T10:04:35.464Z,111136.00
2018-04-30T10:05:35.443Z,116320.00
2018-04-30T10:07:28.319Z,118112.00
2018-04-30T10:08:28.311Z,111680.00
2018-04-30T10:10:21.196Z,88032.00
2018-04-30T10:11:21.172Z,68832.00
2018-04-30T10:13:14.053Z,44256.00
2018-04-30T10:14:14.042Z,44608.00
2018-04-30T10:16:06.928Z,12992.00
2018-04-30T10:17:06.905Z,19872.00
2018-04-30T10:18:59.779Z,12776.00
2018-04-30T10:19:59.768Z,11720.00
2018-04-30T10:21:52.651Z,60160.00
2018-04-30T10:22:52.628Z,30432.00
2018-04-30T10:24:45.497Z,18240.00
2018-04-30T10:25:45.486Z,13636.00
2018-04-30T10:27:38.372Z,18240.00
2018-04-30T10:28:38.409Z,112416.00
2018-04-30T10:30:31.219Z,45088.00
2018-04-30T10:31:31.210Z,12904.00
2018-04-30T10:33:24.089Z,37728.00
2018-04-30T10:34:24.070Z,40064.00
2018-04-30T10:36:16.944Z,36448.00
2018-04-30T10:37:16.930Z,20096.00
2018-04-30T10:39:09.809Z,42656.00
2018-04-30T10:40:09.788Z,41632.00
2018-04-30T10:42:02.665Z,23072.00
2018-04-30T10:43:02.652Z,20832.00
2018-04-30T10:44:55.535Z,15244.00
2018-04-30T10:45:55.611Z,14992.00
2018-04-30T10:47:48.382Z,19520.00
2018-04-30T10:48:48.375Z,15228.00
2018-04-30T10:50:41.257Z,12244.00
2018-04-30T10:51:41.247Z,14032.00
2018-04-30T10:53:34.098Z,15372.00
2018-04-30T10:54:34.087Z,14612.00
2018-04-30T10:56:26.959Z,16232.00
2018-04-30T10:57:26.938Z,17760.00
2018-04-30T10:59:19.877Z,37728.00
2018-04-30T11:00:19.790Z,22240.00
2018-04-30T11:02:12.665Z,15968.00
2018-04-30T11:03:12.640Z,24832.00
2018-04-30T11:05:05.507Z,48032.00
2018-04-30T11:06:05.494Z,25184.00
2018-04-30T11:07:58.443Z,24320.00
2018-04-30T11:08:58.355Z,23648.00
2018-04-30T11:10:51.221Z,21792.00
2018-04-30T11:11:51.208Z,25568.00
2018-04-30T11:13:44.092Z,30656.00
2018-04-30T11:14:44.067Z,43488.00
2018-04-30T11:16:36.939Z,42784.00
2018-04-30T11:17:36.943Z,23072.00
2018-04-30T11:19:29.806Z,20032.00
2018-04-30T11:20:29.789Z,14752.00
2018-04-30T11:22:22.661Z,10632.00
2018-04-30T11:23:22.661Z,12748.00
2018-04-30T11:25:15.532Z,31680.00
2018-04-30T11:26:15.508Z,28832.00
2018-04-30T11:28:08.379Z,27360.00
2018-04-30T11:29:08.366Z,28384.00
2018-04-30T11:31:01.248Z,31520.00
2018-04-30T11:32:01.230Z,32544.00
2018-04-30T11:33:54.108Z,36768.00
2018-04-30T11:34:54.088Z,35328.00
2018-04-30T11:36:46.978Z,17504.00
2018-04-30T11:37:46.955Z,15696.00
2018-04-30T11:39:39.830Z,12372.00
2018-04-30T11:40:39.823Z,31456.00
2018-04-30T11:42:32.708Z,15860.00
2018-04-30T11:43:32.682Z,13636.00
2018-04-30T11:45:25.557Z,38144.00
2018-04-30T11:46:25.545Z,36864.00
2018-04-30T11:48:18.421Z,11680.00
2018-04-30T11:49:18.404Z,9784.00
2018-04-30T11:51:11.278Z,11124.00
2018-04-30T11:52:11.268Z,13760.00
2018-04-30T11:54:04.151Z,14244.00
2018-04-30T11:55:04.131Z,13828.00
2018-04-30T11:56:57.001Z,23392.00
2018-04-30T11:57:56.988Z,34336.00
2018-04-30T11:59:49.885Z,38048.00
2018-04-30T12:00:49.844Z,40448.00
2018-04-30T12:02:42.711Z,39488.00
2018-04-30T12:03:42.700Z,37472.00
2018-04-30T12:05:35.576Z,35808.00
2018-04-30T12:06:35.558Z,35392.00
2018-04-30T12:08:28.441Z,22912.00
2018-04-30T12:09:28.418Z,34656.00
2018-04-30T12:11:21.301Z,32704.00
2018-04-30T12:12:21.280Z,31456.00
2018-04-30T12:14:14.154Z,28512.00
2018-04-30T12:15:14.143Z,27456.00
2018-04-30T12:17:07.028Z,26464.00
2018-04-30T12:18:07.005Z,25824.00
2018-04-30T12:19:59.885Z,26336.00
2018-04-30T12:20:59.874Z,24640.00
2018-04-30T12:22:52.755Z,22848.00
2018-04-30T12:23:52.736Z,22112.00
2018-04-30T12:25:45.611Z,21408.00
2018-04-30T12:26:45.603Z,20960.00
2018-04-30T12:28:38.486Z,22432.00
2018-04-30T12:29:38.525Z,25888.00
2018-04-30T12:31:31.338Z,25376.00
2018-04-30T12:32:31.327Z,23648.00
2018-04-30T12:34:24.214Z,24096.00
2018-04-30T12:35:24.189Z,22240.00
2018-04-30T12:37:17.059Z,16420.00
2018-04-30T12:38:17.051Z,21376.00
2018-04-30T12:40:09.927Z,21440.00
2018-04-30T12:41:09.909Z,22208.00
2018-04-30T12:43:02.778Z,11620.00
2018-04-30T12:44:02.767Z,20960.00
2018-04-30T12:45:55.644Z,20160.00
2018-04-30T12:46:55.630Z,21888.00
2018-04-30T12:48:48.499Z,22432.00
2018-04-30T12:49:48.509Z,10692.00
2018-04-30T12:51:41.366Z,13144.00
2018-04-30T12:52:41.349Z,11860.00
2018-04-30T12:54:34.226Z,12492.00
2018-04-30T12:55:34.214Z,26912.00
2018-04-30T12:57:27.165Z,11588.00
2018-04-30T12:58:27.074Z,13972.00
2018-04-30T13:00:19.954Z,13816.00
2018-04-30T13:01:19.933Z,11696.00
2018-04-30T13:03:12.804Z,12128.00
2018-04-30T13:04:12.786Z,10624.00
2018-04-30T13:06:05.664Z,8624.00
2018-04-30T13:07:05.639Z,8244.00
2018-04-30T13:08:58.512Z,10156.00
2018-04-30T13:09:58.504Z,22496.00
2018-04-30T13:11:51.377Z,21536.00
2018-04-30T13:12:51.353Z,21696.00
2018-04-30T13:14:44.217Z,19968.00
2018-04-30T13:15:44.235Z,18656.00
2018-04-30T13:17:37.080Z,16120.00
2018-04-30T13:18:37.060Z,15684.00
2018-04-30T13:20:29.961Z,14752.00
2018-04-30T13:21:29.916Z,14796.00
2018-04-30T13:23:22.787Z,5740.00
2018-04-30T13:24:22.777Z,15524.00
2018-04-30T13:26:15.664Z,17408.00
2018-04-30T13:27:15.626Z,15392.00
2018-04-30T13:29:08.497Z,17060.00
2018-04-30T13:30:08.485Z,17108.00
2018-04-30T13:32:01.367Z,15348.00
2018-04-30T13:33:01.342Z,14112.00
2018-04-30T13:34:54.207Z,13416.00
2018-04-30T13:35:54.194Z,5556.00
2018-04-30T13:37:47.071Z,14712.00
2018-04-30T13:38:47.050Z,15728.00
2018-04-30T13:40:39.917Z,14688.00
2018-04-30T13:41:39.914Z,15056.00
2018-04-30T13:43:32.811Z,15672.00
2018-04-30T13:44:32.763Z,15608.00
2018-04-30T13:46:25.630Z,15632.00
2018-04-30T13:47:25.620Z,15416.00
2018-04-30T13:49:18.500Z,13024.00
2018-04-30T13:50:18.474Z,12336.00
2018-04-30T13:52:11.344Z,12096.00
2018-04-30T13:53:11.334Z,5052.00
2018-04-30T13:55:04.206Z,7196.00
2018-04-30T13:56:04.188Z,7216.00
2018-04-30T13:57:57.053Z,12484.00
2018-04-30T13:58:57.042Z,13092.00
2018-04-30T14:00:49.922Z,13776.00
2018-04-30T14:01:49.942Z,11392.00
2018-04-30T14:03:42.768Z,10580.00
2018-04-30T14:04:42.755Z,10660.00
2018-04-30T14:06:35.634Z,10328.00
2018-04-30T14:07:35.609Z,9904.00
2018-04-30T14:09:28.479Z,9416.00
2018-04-30T14:10:28.469Z,9200.00
2018-04-30T14:12:21.339Z,8888.00
2018-04-30T14:13:21.320Z,8740.00
2018-04-30T14:15:14.188Z,8540.00
2018-04-30T14:16:14.177Z,8452.00
2018-04-30T14:18:07.063Z,8236.00
2018-04-30T14:19:07.040Z,8192.00
2018-04-30T14:20:59.909Z,8088.00
2018-04-30T14:21:59.897Z,8044.00
2018-04-30T14:23:52.778Z,7908.00
2018-04-30T14:24:52.753Z,7816.00
2018-04-30T14:26:45.621Z,7716.00
2018-04-30T14:27:45.642Z,7652.00
2018-04-30T14:29:38.484Z,7528.00
2018-04-30T14:30:38.466Z,7448.00
2018-04-30T14:32:31.330Z,7360.00
2018-04-30T14:33:31.315Z,7304.00
2018-04-30T14:35:24.192Z,7188.00
2018-04-30T14:36:24.169Z,7148.00
2018-04-30T14:38:17.177Z,7052.00
2018-04-30T14:39:17.018Z,7000.00
2018-04-30T14:41:09.901Z,6932.00
2018-04-30T14:42:09.875Z,6888.00
2018-04-30T14:44:02.741Z,6816.00
2018-04-30T14:45:02.727Z,6760.00
2018-04-30T14:46:55.603Z,6616.00
2018-04-30T14:47:55.581Z,6548.00
2018-04-30T14:49:48.443Z,6432.00
2018-04-30T14:50:48.433Z,6388.00
2018-04-30T14:52:41.305Z,6276.00
2018-04-30T14:53:41.280Z,6232.00
2018-04-30T14:55:34.142Z,6156.00
2018-04-30T14:56:34.137Z,6100.00
2018-04-30T14:58:27.005Z,6032.00
2018-04-30T14:59:26.982Z,5964.00
2018-04-30T15:01:19.843Z,5836.00
2018-04-30T15:02:19.827Z,5792.00
2018-04-30T15:04:12.700Z,5704.00
2018-04-30T15:05:12.680Z,5660.00
2018-04-30T15:07:05.548Z,5588.00
2018-04-30T15:08:05.527Z,5540.00
2018-04-30T15:09:58.405Z,5440.00
2018-04-30T15:10:58.380Z,4108.00
2018-04-30T15:12:51.244Z,4176.00
2018-04-30T15:13:51.228Z,3716.00
2018-04-30T15:15:44.106Z,3524.00
2018-04-30T15:16:44.079Z,3544.00
2018-04-30T15:18:36.943Z,3484.00
2018-04-30T15:19:36.938Z,3484.00
2018-04-30T15:21:29.796Z,3468.00
2018-04-30T15:22:29.783Z,3472.00
2018-04-30T15:24:22.634Z,3540.00
2018-04-30T15:25:22.619Z,3524.00
2018-04-30T15:27:15.496Z,3596.00
2018-04-30T15:28:15.469Z,4228.00
2018-04-30T15:30:08.332Z,3796.00
2018-04-30T15:31:08.315Z,3452.00
2018-04-30T15:33:01.202Z,3420.00
2018-04-30T15:34:01.160Z,3436.00
2018-04-30T15:35:54.047Z,3400.00
2018-04-30T15:36:54.004Z,3316.00
2018-04-30T15:38:46.885Z,3304.00
2018-04-30T15:39:46.857Z,3144.00
2018-04-30T15:41:39.717Z,3236.00
2018-04-30T15:42:39.699Z,3508.00
2018-04-30T15:44:32.573Z,4260.00
2018-04-30T15:45:32.543Z,4788.00
2018-04-30T15:47:25.406Z,7540.00
2018-04-30T15:48:25.389Z,8396.00
2018-04-30T15:50:18.256Z,7984.00
2018-04-30T15:51:18.242Z,6668.00
2018-04-30T15:53:11.093Z,5016.00
2018-04-30T15:54:11.078Z,4472.00
2018-04-30T15:56:03.955Z,3748.00
2018-04-30T15:57:03.920Z,3536.00
2018-04-30T15:58:56.783Z,3368.00
2018-04-30T15:59:56.761Z,3320.00
2018-04-30T16:01:49.635Z,3256.00
2018-04-30T16:02:49.607Z,3224.00
2018-04-30T16:04:42.464Z,3188.00
2018-04-30T16:05:42.448Z,3164.00
2018-04-30T16:07:35.322Z,3132.00
2018-04-30T16:08:35.295Z,3116.00
2018-04-30T16:10:28.157Z,3100.00
2018-04-30T16:11:28.132Z,3080.00
2018-04-30T16:13:20.994Z,3052.00
2018-04-30T16:14:20.991Z,3048.00
2018-04-30T16:16:13.829Z,3036.00
2018-04-30T16:17:13.810Z,3028.00
2018-04-30T16:19:06.688Z,3032.00
2018-04-30T16:20:06.661Z,3028.00
2018-04-30T16:21:59.519Z,3012.00
2018-04-30T16:22:59.500Z,3004.00
2018-04-30T16:24:52.368Z,2992.00
2018-04-30T16:25:52.338Z,2988.00
2018-04-30T16:27:45.193Z,2980.00
2018-04-30T16:28:45.176Z,2972.00
2018-04-30T16:30:38.119Z,2948.00
2018-04-30T16:31:38.016Z,2944.00
2018-04-30T16:33:30.869Z,2928.00
2018-04-30T16:34:30.857Z,2916.00
2018-04-30T16:36:23.721Z,2896.00
2018-04-30T16:37:23.689Z,2884.00
2018-04-30T16:39:16.547Z,2860.00
2018-04-30T16:40:16.537Z,2848.00
2018-04-30T16:42:09.400Z,2832.00
2018-04-30T16:43:09.368Z,2824.00
2018-04-30T16:45:02.230Z,2816.00
2018-04-30T16:46:02.211Z,2812.00
2018-04-30T16:47:55.079Z,2792.00
2018-04-30T16:48:55.051Z,2784.00
2018-04-30T16:50:47.905Z,2760.00
2018-04-30T16:51:47.890Z,2748.00
2018-04-30T16:53:40.758Z,2732.00
2018-04-30T16:54:40.731Z,2724.00
2018-04-30T16:56:33.582Z,2700.00
2018-04-30T16:57:33.564Z,2688.00
2018-04-30T16:59:26.431Z,2668.00
2018-04-30T17:00:26.399Z,2652.00
2018-04-30T17:02:19.254Z,2636.00
2018-04-30T17:03:19.235Z,2628.00
2018-04-30T17:05:12.100Z,2608.00
2018-04-30T17:06:12.075Z,2592.00
2018-04-30T17:08:04.930Z,2568.00
2018-04-30T17:09:04.912Z,2552.00
2018-04-30T17:10:57.785Z,2532.00
2018-04-30T17:11:57.760Z,2516.00
2018-04-30T17:13:50.614Z,2484.00
2018-04-30T17:14:50.593Z,2468.00
2018-04-30T17:16:43.466Z,2424.00
2018-04-30T17:17:43.516Z,2384.00
2018-04-30T17:19:36.285Z,2360.00
2018-04-30T17:20:36.266Z,2348.00
2018-04-30T17:22:29.706Z,2268.00
2018-04-30T17:23:29.108Z,2252.00
2018-04-30T17:25:21.968Z,2308.00
2018-04-30T17:26:21.942Z,2304.00
2018-04-30T17:28:14.810Z,2280.00
2018-04-30T17:29:14.781Z,2260.00
2018-04-30T17:31:07.646Z,2228.00
2018-04-30T17:32:07.627Z,2212.00
2018-04-30T17:34:00.496Z,2172.00